sensor_id;sensor_type;location;lat;lon;timestamp;temperature;humidity
22418;DHT22;11376;50.932;4.442;2023-05-23T00:00:24;14.70;99.90
22418;DHT22;11376;50.932;4.442;2023-05-23T00:02:51;14.70;99.90
22418;DHT22;11376;50.932;4.442;2023-05-23T00:05:17;14.70;99.90
22418;DHT22;11376;50.932;4.442;2023-05-23T00:07:44;14.60;99.90
22418;DHT22;11376;50.932;4.442;2023-05-23T00:10:10;14.60;99.90
22418;DHT22;11376;50.932;4.442;2023-05-23T00:12:36;14.60;99.90
22418;DHT22;11376;50.932;4.442;2023-05-23T00:15:04;14.40;99.90
22418;DHT22;11376;50.932;4.442;2023-05-23T00:17:32;14.30;99.90
22418;DHT22;11376;50.932;4.442;2023-05-23T00:19:58;14.20;99.90
22418;DHT22;11376;50.932;4.442;2023-05-23T00:22:24;14.20;99.90
22418;DHT22;11376;50.932;4.442;2023-05-23T00:24:49;14.10;99.90
22418;DHT22;11376;50.932;4.442;2023-05-23T00:27:15;13.90;99.90
22418;DHT22;11376;50.932;4.442;2023-05-23T00:29:41;14.00;99.90
22418;DHT22;11376;50.932;4.442;2023-05-23T00:32:06;14.00;99.90
22418;DHT22;11376;50.932;4.442;2023-05-23T00:34:32;13.90;99.90
22418;DHT22;11376;50.932;4.442;2023-05-23T00:36:58;13.90;99.90
22418;DHT22;11376;50.932;4.442;2023-05-23T00:39:26;14.00;99.90
22418;DHT22;11376;50.932;4.442;2023-05-23T00:41:52;13.90;99.90
22418;DHT22;11376;50.932;4.442;2023-05-23T00:44:18;13.90;99.90
22418;DHT22;11376;50.932;4.442;2023-05-23T00:46:50;14.00;99.90
22418;DHT22;11376;50.932;4.442;2023-05-23T00:49:16;14.00;99.90
22418;DHT22;11376;50.932;4.442;2023-05-23T00:51:45;14.00;99.90
22418;DHT22;11376;50.932;4.442;2023-05-23T00:54:11;14.00;99.90
22418;DHT22;11376;50.932;4.442;2023-05-23T00:56:38;14.00;99.90
22418;DHT22;11376;50.932;4.442;2023-05-23T00:59:04;14.00;99.90
22418;DHT22;11376;50.932;4.442;2023-05-23T01:01:31;14.00;99.90
22418;DHT22;11376;50.932;4.442;2023-05-23T01:03:57;13.90;99.90
22418;DHT22;11376;50.932;4.442;2023-05-23T01:06:23;13.90;99.90
22418;DHT22;11376;50.932;4.442;2023-05-23T01:08:49;13.90;99.90
22418;DHT22;11376;50.932;4.442;2023-05-23T01:11:41;14.00;99.90
22418;DHT22;11376;50.932;4.442;2023-05-23T01:14:15;14.00;99.90
22418;DHT22;11376;50.932;4.442;2023-05-23T01:16:50;14.10;99.90
22418;DHT22;11376;50.932;4.442;2023-05-23T01:22:59;14.10;99.90
22418;DHT22;11376;50.932;4.442;2023-05-23T01:28:36;14.10;99.90
22418;DHT22;11376;50.932;4.442;2023-05-23T01:31:03;14.20;99.90
22418;DHT22;11376;50.932;4.442;2023-05-23T01:33:31;14.30;99.90
22418;DHT22;11376;50.932;4.442;2023-05-23T01:36:00;14.40;99.90
22418;DHT22;11376;50.932;4.442;2023-05-23T01:38:26;14.40;99.90
22418;DHT22;11376;50.932;4.442;2023-05-23T01:40:52;14.40;99.90
22418;DHT22;11376;50.932;4.442;2023-05-23T01:43:18;14.50;99.90
22418;DHT22;11376;50.932;4.442;2023-05-23T01:45:44;14.50;99.90
22418;DHT22;11376;50.932;4.442;2023-05-23T01:48:11;14.60;99.90
22418;DHT22;11376;50.932;4.442;2023-05-23T01:50:38;14.80;99.90
22418;DHT22;11376;50.932;4.442;2023-05-23T01:53:06;14.80;99.90
22418;DHT22;11376;50.932;4.442;2023-05-23T01:55:33;14.90;99.90
22418;DHT22;11376;50.932;4.442;2023-05-23T01:58:00;15.00;99.90
22418;DHT22;11376;50.932;4.442;2023-05-23T02:00:26;15.00;99.90
22418;DHT22;11376;50.932;4.442;2023-05-23T02:02:52;15.10;99.90
22418;DHT22;11376;50.932;4.442;2023-05-23T02:05:18;15.20;99.90
22418;DHT22;11376;50.932;4.442;2023-05-23T02:07:44;15.20;99.90
22418;DHT22;11376;50.932;4.442;2023-05-23T02:10:09;15.10;99.90
22418;DHT22;11376;50.932;4.442;2023-05-23T02:12:35;15.00;99.90
22418;DHT22;11376;50.932;4.442;2023-05-23T02:15:02;14.80;99.90
22418;DHT22;11376;50.932;4.442;2023-05-23T02:17:28;14.80;99.90
22418;DHT22;11376;50.932;4.442;2023-05-23T02:19:55;14.80;99.90
22418;DHT22;11376;50.932;4.442;2023-05-23T02:22:24;14.70;99.90
22418;DHT22;11376;50.932;4.442;2023-05-23T02:24:50;14.60;99.90
22418;DHT22;11376;50.932;4.442;2023-05-23T02:27:17;14.50;99.90
22418;DHT22;11376;50.932;4.442;2023-05-23T02:29:42;14.50;99.90
22418;DHT22;11376;50.932;4.442;2023-05-23T02:32:08;14.40;99.90
22418;DHT22;11376;50.932;4.442;2023-05-23T02:34:34;14.40;99.90
22418;DHT22;11376;50.932;4.442;2023-05-23T02:37:00;14.50;99.90
22418;DHT22;11376;50.932;4.442;2023-05-23T02:39:26;14.50;99.90
22418;DHT22;11376;50.932;4.442;2023-05-23T02:41:52;14.50;99.90
22418;DHT22;11376;50.932;4.442;2023-05-23T02:44:17;14.60;99.90
22418;DHT22;11376;50.932;4.442;2023-05-23T02:46:44;14.60;99.90
22418;DHT22;11376;50.932;4.442;2023-05-23T02:49:10;14.80;99.90
22418;DHT22;11376;50.932;4.442;2023-05-23T02:51:36;14.70;99.90
22418;DHT22;11376;50.932;4.442;2023-05-23T02:54:02;14.80;99.90
22418;DHT22;11376;50.932;4.442;2023-05-23T02:56:27;14.60;99.90
22418;DHT22;11376;50.932;4.442;2023-05-23T02:58:53;14.60;99.90
22418;DHT22;11376;50.932;4.442;2023-05-23T03:01:19;14.40;99.90
22418;DHT22;11376;50.932;4.442;2023-05-23T03:03:45;14.30;99.90
22418;DHT22;11376;50.932;4.442;2023-05-23T03:06:11;14.40;99.90
22418;DHT22;11376;50.932;4.442;2023-05-23T03:08:42;14.40;99.90
22418;DHT22;11376;50.932;4.442;2023-05-23T03:11:08;14.30;99.90
22418;DHT22;11376;50.932;4.442;2023-05-23T03:13:34;14.40;99.90
22418;DHT22;11376;50.932;4.442;2023-05-23T03:16:00;14.30;99.90
22418;DHT22;11376;50.932;4.442;2023-05-23T03:18:26;14.30;99.90
22418;DHT22;11376;50.932;4.442;2023-05-23T03:20:52;14.40;99.90
22418;DHT22;11376;50.932;4.442;2023-05-23T03:23:17;14.20;99.90
22418;DHT22;11376;50.932;4.442;2023-05-23T03:25:43;14.20;99.90
22418;DHT22;11376;50.932;4.442;2023-05-23T03:28:09;14.10;99.90
22418;DHT22;11376;50.932;4.442;2023-05-23T03:30:37;14.10;99.90
22418;DHT22;11376;50.932;4.442;2023-05-23T03:33:02;14.10;99.90
22418;DHT22;11376;50.932;4.442;2023-05-23T03:35:28;14.10;99.90
22418;DHT22;11376;50.932;4.442;2023-05-23T03:37:54;14.10;99.90
22418;DHT22;11376;50.932;4.442;2023-05-23T03:40:20;14.00;99.90
22418;DHT22;11376;50.932;4.442;2023-05-23T03:42:47;14.10;99.90
22418;DHT22;11376;50.932;4.442;2023-05-23T03:45:14;14.20;99.90
22418;DHT22;11376;50.932;4.442;2023-05-23T03:47:40;14.30;99.90
22418;DHT22;11376;50.932;4.442;2023-05-23T03:50:07;14.30;99.90
22418;DHT22;11376;50.932;4.442;2023-05-23T03:52:33;14.40;99.90
22418;DHT22;11376;50.932;4.442;2023-05-23T03:54:59;14.40;99.90
22418;DHT22;11376;50.932;4.442;2023-05-23T03:57:24;14.40;99.90
22418;DHT22;11376;50.932;4.442;2023-05-23T03:59:50;14.40;99.90
22418;DHT22;11376;50.932;4.442;2023-05-23T04:02:16;14.40;99.90
22418;DHT22;11376;50.932;4.442;2023-05-23T04:04:42;14.30;99.90
22418;DHT22;11376;50.932;4.442;2023-05-23T04:07:08;14.40;99.90
22418;DHT22;11376;50.932;4.442;2023-05-23T04:09:34;14.40;99.90
22418;DHT22;11376;50.932;4.442;2023-05-23T04:12:00;14.50;99.90
22418;DHT22;11376;50.932;4.442;2023-05-23T04:14:26;14.50;99.90
22418;DHT22;11376;50.932;4.442;2023-05-23T04:16:52;14.60;99.90
22418;DHT22;11376;50.932;4.442;2023-05-23T04:19:18;14.70;99.90
22418;DHT22;11376;50.932;4.442;2023-05-23T04:21:43;14.70;99.90
22418;DHT22;11376;50.932;4.442;2023-05-23T04:24:09;14.90;99.90
22418;DHT22;11376;50.932;4.442;2023-05-23T04:26:35;15.00;99.90
22418;DHT22;11376;50.932;4.442;2023-05-23T04:29:02;15.10;99.90
22418;DHT22;11376;50.932;4.442;2023-05-23T04:31:28;15.10;99.90
22418;DHT22;11376;50.932;4.442;2023-05-23T04:33:54;15.20;99.90
22418;DHT22;11376;50.932;4.442;2023-05-23T04:36:20;15.20;99.90
22418;DHT22;11376;50.932;4.442;2023-05-23T04:38:47;15.20;99.90
22418;DHT22;11376;50.932;4.442;2023-05-23T04:41:13;15.20;99.90
22418;DHT22;11376;50.932;4.442;2023-05-23T04:43:41;15.30;99.90
22418;DHT22;11376;50.932;4.442;2023-05-23T04:46:10;15.40;99.90
22418;DHT22;11376;50.932;4.442;2023-05-23T04:48:38;15.40;99.90
22418;DHT22;11376;50.932;4.442;2023-05-23T04:51:04;15.30;99.90
22418;DHT22;11376;50.932;4.442;2023-05-23T04:53:33;15.30;99.90
22418;DHT22;11376;50.932;4.442;2023-05-23T04:55:59;15.30;99.90
22418;DHT22;11376;50.932;4.442;2023-05-23T04:58:25;15.20;99.90
22418;DHT22;11376;50.932;4.442;2023-05-23T05:00:51;15.20;99.90
22418;DHT22;11376;50.932;4.442;2023-05-23T05:03:16;15.10;99.90
22418;DHT22;11376;50.932;4.442;2023-05-23T05:05:43;15.00;99.90
22418;DHT22;11376;50.932;4.442;2023-05-23T05:08:08;15.00;99.90
22418;DHT22;11376;50.932;4.442;2023-05-23T05:10:34;14.90;99.90
22418;DHT22;11376;50.932;4.442;2023-05-23T05:13:00;14.90;99.90
22418;DHT22;11376;50.932;4.442;2023-05-23T05:15:25;15.00;99.90
22418;DHT22;11376;50.932;4.442;2023-05-23T05:17:51;15.00;99.90
22418;DHT22;11376;50.932;4.442;2023-05-23T05:20:17;14.90;99.90
22418;DHT22;11376;50.932;4.442;2023-05-23T05:22:43;14.90;99.90
22418;DHT22;11376;50.932;4.442;2023-05-23T05:25:09;14.90;99.90
22418;DHT22;11376;50.932;4.442;2023-05-23T05:27:35;14.90;99.90
22418;DHT22;11376;50.932;4.442;2023-05-23T05:30:08;14.80;99.90
22418;DHT22;11376;50.932;4.442;2023-05-23T05:32:34;14.80;99.90
22418;DHT22;11376;50.932;4.442;2023-05-23T05:35:01;14.80;99.90
22418;DHT22;11376;50.932;4.442;2023-05-23T05:37:26;14.80;99.90
22418;DHT22;11376;50.932;4.442;2023-05-23T05:39:53;14.80;99.90
22418;DHT22;11376;50.932;4.442;2023-05-23T05:42:20;14.70;99.90
22418;DHT22;11376;50.932;4.442;2023-05-23T05:44:47;14.70;99.90
22418;DHT22;11376;50.932;4.442;2023-05-23T05:47:13;14.70;99.90
22418;DHT22;11376;50.932;4.442;2023-05-23T05:49:39;14.70;99.90
22418;DHT22;11376;50.932;4.442;2023-05-23T05:52:07;14.80;99.90
22418;DHT22;11376;50.932;4.442;2023-05-23T05:54:33;14.70;99.90
22418;DHT22;11376;50.932;4.442;2023-05-23T05:56:59;14.70;99.90
22418;DHT22;11376;50.932;4.442;2023-05-23T05:59:25;14.60;99.90
22418;DHT22;11376;50.932;4.442;2023-05-23T06:01:51;14.50;99.90
22418;DHT22;11376;50.932;4.442;2023-05-23T06:04:17;14.60;99.90
22418;DHT22;11376;50.932;4.442;2023-05-23T06:06:43;14.70;99.90
22418;DHT22;11376;50.932;4.442;2023-05-23T06:09:09;14.70;99.90
22418;DHT22;11376;50.932;4.442;2023-05-23T06:11:35;14.60;99.90
22418;DHT22;11376;50.932;4.442;2023-05-23T06:14:06;14.60;99.90
22418;DHT22;11376;50.932;4.442;2023-05-23T06:16:32;14.70;99.90
22418;DHT22;11376;50.932;4.442;2023-05-23T06:18:57;14.60;99.90
22418;DHT22;11376;50.932;4.442;2023-05-23T06:21:23;14.50;99.90
22418;DHT22;11376;50.932;4.442;2023-05-23T06:23:49;14.40;99.90
22418;DHT22;11376;50.932;4.442;2023-05-23T06:26:14;14.30;99.90
22418;DHT22;11376;50.932;4.442;2023-05-23T06:28:40;14.40;99.90
22418;DHT22;11376;50.932;4.442;2023-05-23T06:31:06;14.50;99.90
22418;DHT22;11376;50.932;4.442;2023-05-23T06:33:34;14.50;99.90
22418;DHT22;11376;50.932;4.442;2023-05-23T06:36:00;14.40;99.90
22418;DHT22;11376;50.932;4.442;2023-05-23T06:38:28;14.60;99.90
22418;DHT22;11376;50.932;4.442;2023-05-23T06:40:55;14.70;99.90
22418;DHT22;11376;50.932;4.442;2023-05-23T06:43:21;14.90;99.90
22418;DHT22;11376;50.932;4.442;2023-05-23T06:45:47;14.90;99.90
22418;DHT22;11376;50.932;4.442;2023-05-23T06:48:12;15.00;99.90
22418;DHT22;11376;50.932;4.442;2023-05-23T06:50:39;15.20;99.90
22418;DHT22;11376;50.932;4.442;2023-05-23T06:53:05;15.20;99.90
22418;DHT22;11376;50.932;4.442;2023-05-23T06:55:31;15.40;99.90
22418;DHT22;11376;50.932;4.442;2023-05-23T06:57:59;15.60;99.90
22418;DHT22;11376;50.932;4.442;2023-05-23T07:00:25;15.60;99.90
22418;DHT22;11376;50.932;4.442;2023-05-23T07:02:50;15.60;99.90
22418;DHT22;11376;50.932;4.442;2023-05-23T07:05:16;15.80;99.90
22418;DHT22;11376;50.932;4.442;2023-05-23T07:07:42;15.80;99.90
22418;DHT22;11376;50.932;4.442;2023-05-23T07:10:08;16.10;99.90
22418;DHT22;11376;50.932;4.442;2023-05-23T07:12:34;16.50;99.90
22418;DHT22;11376;50.932;4.442;2023-05-23T07:15:01;16.60;99.90
22418;DHT22;11376;50.932;4.442;2023-05-23T07:17:26;16.50;99.90
22418;DHT22;11376;50.932;4.442;2023-05-23T07:19:54;16.50;99.90
22418;DHT22;11376;50.932;4.442;2023-05-23T07:22:20;16.40;99.90
22418;DHT22;11376;50.932;4.442;2023-05-23T07:24:46;16.30;99.90
22418;DHT22;11376;50.932;4.442;2023-05-23T07:27:11;16.40;99.90
22418;DHT22;11376;50.932;4.442;2023-05-23T07:29:37;16.50;99.90
22418;DHT22;11376;50.932;4.442;2023-05-23T07:32:04;16.50;99.90
22418;DHT22;11376;50.932;4.442;2023-05-23T07:34:29;16.70;99.90
22418;DHT22;11376;50.932;4.442;2023-05-23T07:36:55;16.80;99.90
22418;DHT22;11376;50.932;4.442;2023-05-23T07:39:21;16.80;99.90
22418;DHT22;11376;50.932;4.442;2023-05-23T07:41:48;16.90;99.90
22418;DHT22;11376;50.932;4.442;2023-05-23T07:44:15;16.90;99.90
22418;DHT22;11376;50.932;4.442;2023-05-23T07:46:41;16.90;99.90
22418;DHT22;11376;50.932;4.442;2023-05-23T07:49:06;16.90;99.90
22418;DHT22;11376;50.932;4.442;2023-05-23T07:51:32;16.70;99.90
22418;DHT22;11376;50.932;4.442;2023-05-23T07:53:58;16.80;99.90
22418;DHT22;11376;50.932;4.442;2023-05-23T07:56:23;16.80;99.90
22418;DHT22;11376;50.932;4.442;2023-05-23T07:58:49;16.90;99.90
22418;DHT22;11376;50.932;4.442;2023-05-23T08:01:15;17.00;99.90
22418;DHT22;11376;50.932;4.442;2023-05-23T08:03:41;17.20;99.90
22418;DHT22;11376;50.932;4.442;2023-05-23T08:06:07;17.40;99.90
22418;DHT22;11376;50.932;4.442;2023-05-23T08:08:33;17.50;99.90
22418;DHT22;11376;50.932;4.442;2023-05-23T08:10:59;17.40;99.90
22418;DHT22;11376;50.932;4.442;2023-05-23T08:13:24;17.10;99.90
22418;DHT22;11376;50.932;4.442;2023-05-23T08:15:51;17.00;99.90
22418;DHT22;11376;50.932;4.442;2023-05-23T08:18:16;16.80;99.90
22418;DHT22;11376;50.932;4.442;2023-05-23T08:20:42;16.80;99.90
22418;DHT22;11376;50.932;4.442;2023-05-23T08:23:08;16.90;99.90
22418;DHT22;11376;50.932;4.442;2023-05-23T08:25:34;16.80;99.90
22418;DHT22;11376;50.932;4.442;2023-05-23T08:28:00;16.50;99.90
22418;DHT22;11376;50.932;4.442;2023-05-23T08:30:27;16.70;99.90
22418;DHT22;11376;50.932;4.442;2023-05-23T08:32:53;17.10;99.90
22418;DHT22;11376;50.932;4.442;2023-05-23T08:35:20;17.50;99.90
22418;DHT22;11376;50.932;4.442;2023-05-23T08:37:47;17.80;99.90
22418;DHT22;11376;50.932;4.442;2023-05-23T08:40:17;18.20;99.90
22418;DHT22;11376;50.932;4.442;2023-05-23T08:42:44;18.30;99.90
22418;DHT22;11376;50.932;4.442;2023-05-23T08:45:09;18.40;99.90
22418;DHT22;11376;50.932;4.442;2023-05-23T08:47:36;18.60;99.90
22418;DHT22;11376;50.932;4.442;2023-05-23T08:50:13;18.40;99.90
22418;DHT22;11376;50.932;4.442;2023-05-23T08:52:56;18.40;99.90
22418;DHT22;11376;50.932;4.442;2023-05-23T08:55:28;18.60;99.90
22418;DHT22;11376;50.932;4.442;2023-05-23T08:57:57;18.70;99.90
22418;DHT22;11376;50.932;4.442;2023-05-23T09:00:27;18.50;99.90
22418;DHT22;11376;50.932;4.442;2023-05-23T09:02:52;18.60;99.90
22418;DHT22;11376;50.932;4.442;2023-05-23T09:05:19;18.80;99.90
22418;DHT22;11376;50.932;4.442;2023-05-23T09:07:46;18.80;99.90
22418;DHT22;11376;50.932;4.442;2023-05-23T09:10:14;18.90;99.90
22418;DHT22;11376;50.932;4.442;2023-05-23T09:12:41;18.90;99.90
22418;DHT22;11376;50.932;4.442;2023-05-23T09:15:08;18.60;99.90
22418;DHT22;11376;50.932;4.442;2023-05-23T09:17:36;18.50;99.90
22418;DHT22;11376;50.932;4.442;2023-05-23T09:20:13;18.50;99.90
22418;DHT22;11376;50.932;4.442;2023-05-23T09:22:40;18.30;99.90
22418;DHT22;11376;50.932;4.442;2023-05-23T09:25:10;18.20;99.90
22418;DHT22;11376;50.932;4.442;2023-05-23T09:27:36;18.30;99.90
22418;DHT22;11376;50.932;4.442;2023-05-23T09:30:09;18.30;99.90
22418;DHT22;11376;50.932;4.442;2023-05-23T09:32:35;18.40;99.90
22418;DHT22;11376;50.932;4.442;2023-05-23T09:35:05;18.70;99.90
22418;DHT22;11376;50.932;4.442;2023-05-23T09:37:58;18.80;99.90
22418;DHT22;11376;50.932;4.442;2023-05-23T09:40:28;18.90;99.90
22418;DHT22;11376;50.932;4.442;2023-05-23T09:43:03;19.00;99.90
22418;DHT22;11376;50.932;4.442;2023-05-23T09:45:30;19.10;99.90
22418;DHT22;11376;50.932;4.442;2023-05-23T09:47:56;19.00;99.90
22418;DHT22;11376;50.932;4.442;2023-05-23T09:50:22;18.90;99.90
22418;DHT22;11376;50.932;4.442;2023-05-23T09:52:49;18.80;99.90
22418;DHT22;11376;50.932;4.442;2023-05-23T09:55:15;19.00;99.90
22418;DHT22;11376;50.932;4.442;2023-05-23T09:57:42;19.20;99.90
22418;DHT22;11376;50.932;4.442;2023-05-23T10:00:09;19.10;99.90
22418;DHT22;11376;50.932;4.442;2023-05-23T10:05:48;18.90;99.90
22418;DHT22;11376;50.932;4.442;2023-05-23T10:08:26;18.80;99.90
22418;DHT22;11376;50.932;4.442;2023-05-23T10:13:25;18.80;99.90
22418;DHT22;11376;50.932;4.442;2023-05-23T10:18:43;19.10;99.90
22418;DHT22;11376;50.932;4.442;2023-05-23T10:21:11;19.30;99.90
22418;DHT22;11376;50.932;4.442;2023-05-23T10:23:38;19.40;99.90
22418;DHT22;11376;50.932;4.442;2023-05-23T10:26:05;19.30;99.90
22418;DHT22;11376;50.932;4.442;2023-05-23T10:28:31;18.80;99.90
22418;DHT22;11376;50.932;4.442;2023-05-23T10:30:58;19.00;99.90
22418;DHT22;11376;50.932;4.442;2023-05-23T10:33:25;19.20;99.90
22418;DHT22;11376;50.932;4.442;2023-05-23T10:36:09;19.70;99.90
22418;DHT22;11376;50.932;4.442;2023-05-23T10:38:42;19.80;99.90
22418;DHT22;11376;50.932;4.442;2023-05-23T10:41:12;20.10;99.90
22418;DHT22;11376;50.932;4.442;2023-05-23T10:43:51;20.40;99.90
22418;DHT22;11376;50.932;4.442;2023-05-23T10:46:20;20.80;99.90
22418;DHT22;11376;50.932;4.442;2023-05-23T10:48:46;20.60;99.90
22418;DHT22;11376;50.932;4.442;2023-05-23T10:51:13;20.70;99.90
22418;DHT22;11376;50.932;4.442;2023-05-23T10:53:45;20.90;99.90
22418;DHT22;11376;50.932;4.442;2023-05-23T10:56:23;21.20;99.90
22418;DHT22;11376;50.932;4.442;2023-05-23T10:58:53;21.30;99.90
22418;DHT22;11376;50.932;4.442;2023-05-23T11:01:19;21.80;99.90
22418;DHT22;11376;50.932;4.442;2023-05-23T11:06:42;23.20;99.90
22418;DHT22;11376;50.932;4.442;2023-05-23T11:09:13;24.10;99.90
22418;DHT22;11376;50.932;4.442;2023-05-23T11:12:01;24.30;99.90
22418;DHT22;11376;50.932;4.442;2023-05-23T11:19:37;20.90;99.90
22418;DHT22;11376;50.932;4.442;2023-05-23T11:22:05;21.50;99.90
22418;DHT22;11376;50.932;4.442;2023-05-23T11:24:52;22.30;99.90
22418;DHT22;11376;50.932;4.442;2023-05-23T11:27:34;22.80;99.90
22418;DHT22;11376;50.932;4.442;2023-05-23T11:30:05;23.30;99.90
22418;DHT22;11376;50.932;4.442;2023-05-23T11:32:31;23.50;99.90
22418;DHT22;11376;50.932;4.442;2023-05-23T11:35:06;23.50;99.90
22418;DHT22;11376;50.932;4.442;2023-05-23T11:37:32;23.00;99.90
22418;DHT22;11376;50.932;4.442;2023-05-23T11:39:58;22.10;99.90
22418;DHT22;11376;50.932;4.442;2023-05-23T11:42:24;22.10;99.90
22418;DHT22;11376;50.932;4.442;2023-05-23T11:44:53;23.50;99.90
22418;DHT22;11376;50.932;4.442;2023-05-23T11:47:19;24.90;99.90
22418;DHT22;11376;50.932;4.442;2023-05-23T11:49:45;25.60;99.90
22418;DHT22;11376;50.932;4.442;2023-05-23T11:52:12;25.10;98.70
22418;DHT22;11376;50.932;4.442;2023-05-23T11:54:41;24.90;98.40
22418;DHT22;11376;50.932;4.442;2023-05-23T11:57:08;24.60;98.40
22418;DHT22;11376;50.932;4.442;2023-05-23T11:59:34;25.20;97.20
22418;DHT22;11376;50.932;4.442;2023-05-23T12:02:02;25.40;95.50
22418;DHT22;11376;50.932;4.442;2023-05-23T12:04:28;24.60;95.60
22418;DHT22;11376;50.932;4.442;2023-05-23T12:06:53;24.10;96.40
22418;DHT22;11376;50.932;4.442;2023-05-23T12:09:19;24.20;96.40
22418;DHT22;11376;50.932;4.442;2023-05-23T12:11:47;23.60;97.10
22418;DHT22;11376;50.932;4.442;2023-05-23T12:14:15;22.80;98.70
22418;DHT22;11376;50.932;4.442;2023-05-23T12:16:43;22.70;98.60
22418;DHT22;11376;50.932;4.442;2023-05-23T12:19:10;23.00;98.20
22418;DHT22;11376;50.932;4.442;2023-05-23T12:21:43;24.20;97.10
22418;DHT22;11376;50.932;4.442;2023-05-23T12:24:20;25.40;95.60
22418;DHT22;11376;50.932;4.442;2023-05-23T12:26:55;25.60;93.50
22418;DHT22;11376;50.932;4.442;2023-05-23T12:29:28;25.50;93.20
22418;DHT22;11376;50.932;4.442;2023-05-23T12:31:54;24.50;93.50
22418;DHT22;11376;50.932;4.442;2023-05-23T12:34:20;24.50;94.70
22418;DHT22;11376;50.932;4.442;2023-05-23T12:36:46;25.90;92.90
22418;DHT22;11376;50.932;4.442;2023-05-23T12:39:14;26.90;90.60
22418;DHT22;11376;50.932;4.442;2023-05-23T12:41:44;27.80;87.70
22418;DHT22;11376;50.932;4.442;2023-05-23T12:44:10;27.20;86.60
22418;DHT22;11376;50.932;4.442;2023-05-23T12:46:39;26.80;85.60
22418;DHT22;11376;50.932;4.442;2023-05-23T12:49:05;28.20;84.00
22418;DHT22;11376;50.932;4.442;2023-05-23T12:51:31;29.50;77.90
22418;DHT22;11376;50.932;4.442;2023-05-23T12:53:56;29.40;74.40
22418;DHT22;11376;50.932;4.442;2023-05-23T12:56:22;28.70;73.20
22418;DHT22;11376;50.932;4.442;2023-05-23T12:58:48;27.70;75.00
22418;DHT22;11376;50.932;4.442;2023-05-23T13:01:13;25.80;79.60
22418;DHT22;11376;50.932;4.442;2023-05-23T13:03:39;25.00;84.00
22418;DHT22;11376;50.932;4.442;2023-05-23T13:06:05;25.50;84.30
22418;DHT22;11376;50.932;4.442;2023-05-23T13:08:31;26.80;79.20
22418;DHT22;11376;50.932;4.442;2023-05-23T13:10:56;27.80;75.40
22418;DHT22;11376;50.932;4.442;2023-05-23T13:13:22;27.90;74.60
22418;DHT22;11376;50.932;4.442;2023-05-23T13:15:48;27.10;76.00
22418;DHT22;11376;50.932;4.442;2023-05-23T13:18:14;26.90;76.70
22418;DHT22;11376;50.932;4.442;2023-05-23T13:20:39;25.70;78.50
22418;DHT22;11376;50.932;4.442;2023-05-23T13:23:06;25.60;79.50
22418;DHT22;11376;50.932;4.442;2023-05-23T13:25:32;26.30;78.60
22418;DHT22;11376;50.932;4.442;2023-05-23T13:27:57;27.80;72.60
22418;DHT22;11376;50.932;4.442;2023-05-23T13:30:23;30.00;68.40
22418;DHT22;11376;50.932;4.442;2023-05-23T13:32:49;30.70;65.20
22418;DHT22;11376;50.932;4.442;2023-05-23T13:35:15;31.00;62.20
22418;DHT22;11376;50.932;4.442;2023-05-23T13:37:41;31.50;59.50
22418;DHT22;11376;50.932;4.442;2023-05-23T13:40:06;30.40;61.50
22418;DHT22;11376;50.932;4.442;2023-05-23T13:42:33;30.20;60.90
22418;DHT22;11376;50.932;4.442;2023-05-23T13:44:59;28.50;64.00
22418;DHT22;11376;50.932;4.442;2023-05-23T13:47:24;27.70;66.30
22418;DHT22;11376;50.932;4.442;2023-05-23T13:49:50;27.90;65.20
22418;DHT22;11376;50.932;4.442;2023-05-23T13:52:15;28.60;64.50
22418;DHT22;11376;50.932;4.442;2023-05-23T13:54:41;28.90;63.30
22418;DHT22;11376;50.932;4.442;2023-05-23T13:57:07;29.70;62.90
22418;DHT22;11376;50.932;4.442;2023-05-23T13:59:33;28.40;64.60
22418;DHT22;11376;50.932;4.442;2023-05-23T14:01:58;27.90;66.50
22418;DHT22;11376;50.932;4.442;2023-05-23T14:04:24;27.60;67.00
22418;DHT22;11376;50.932;4.442;2023-05-23T14:06:50;28.30;63.90
22418;DHT22;11376;50.932;4.442;2023-05-23T14:09:15;29.30;63.50
22418;DHT22;11376;50.932;4.442;2023-05-23T14:11:42;30.10;58.70
22418;DHT22;11376;50.932;4.442;2023-05-23T14:14:07;30.40;59.20
22418;DHT22;11376;50.932;4.442;2023-05-23T14:16:33;30.60;58.00
22418;DHT22;11376;50.932;4.442;2023-05-23T14:18:59;30.60;58.80
22418;DHT22;11376;50.932;4.442;2023-05-23T14:21:24;30.20;59.80
22418;DHT22;11376;50.932;4.442;2023-05-23T14:23:50;29.50;60.00
22418;DHT22;11376;50.932;4.442;2023-05-23T14:26:16;29.20;61.90
22418;DHT22;11376;50.932;4.442;2023-05-23T14:28:42;29.40;60.60
22418;DHT22;11376;50.932;4.442;2023-05-23T14:31:07;29.00;60.50
22418;DHT22;11376;50.932;4.442;2023-05-23T14:33:33;28.50;61.70
22418;DHT22;11376;50.932;4.442;2023-05-23T14:35:59;28.90;61.20
22418;DHT22;11376;50.932;4.442;2023-05-23T14:38:25;29.50;60.80
22418;DHT22;11376;50.932;4.442;2023-05-23T14:40:51;28.60;62.60
22418;DHT22;11376;50.932;4.442;2023-05-23T14:43:18;28.60;60.40
22418;DHT22;11376;50.932;4.442;2023-05-23T14:45:44;29.30;60.10
22418;DHT22;11376;50.932;4.442;2023-05-23T14:48:09;29.70;59.20
22418;DHT22;11376;50.932;4.442;2023-05-23T14:50:35;28.80;61.20
22418;DHT22;11376;50.932;4.442;2023-05-23T14:53:01;28.50;62.70
22418;DHT22;11376;50.932;4.442;2023-05-23T14:55:27;28.40;63.50
22418;DHT22;11376;50.932;4.442;2023-05-23T14:57:52;27.40;63.30
22418;DHT22;11376;50.932;4.442;2023-05-23T15:00:18;27.30;63.20
22418;DHT22;11376;50.932;4.442;2023-05-23T15:02:44;27.40;63.50
22418;DHT22;11376;50.932;4.442;2023-05-23T15:05:10;27.40;63.50
22418;DHT22;11376;50.932;4.442;2023-05-23T15:07:37;27.50;64.20
22418;DHT22;11376;50.932;4.442;2023-05-23T15:10:06;28.50;62.40
22418;DHT22;11376;50.932;4.442;2023-05-23T15:12:32;29.00;59.40
22418;DHT22;11376;50.932;4.442;2023-05-23T15:14:58;29.00;59.30
22418;DHT22;11376;50.932;4.442;2023-05-23T15:17:33;27.20;62.60
22418;DHT22;11376;50.932;4.442;2023-05-23T15:19:59;26.20;64.90
22418;DHT22;11376;50.932;4.442;2023-05-23T15:22:25;25.40;66.50
22418;DHT22;11376;50.932;4.442;2023-05-23T15:24:50;24.90;69.30
22418;DHT22;11376;50.932;4.442;2023-05-23T15:27:16;25.10;69.80
22418;DHT22;11376;50.932;4.442;2023-05-23T15:29:43;24.70;69.00
22418;DHT22;11376;50.932;4.442;2023-05-23T15:32:09;23.60;73.00
22418;DHT22;11376;50.932;4.442;2023-05-23T15:34:34;23.90;73.40
22418;DHT22;11376;50.932;4.442;2023-05-23T15:37:00;24.20;71.10
22418;DHT22;11376;50.932;4.442;2023-05-23T15:39:26;24.90;70.60
22418;DHT22;11376;50.932;4.442;2023-05-23T15:41:52;25.00;71.40
22418;DHT22;11376;50.932;4.442;2023-05-23T15:44:18;24.60;71.10
22418;DHT22;11376;50.932;4.442;2023-05-23T15:46:47;24.70;70.90
22418;DHT22;11376;50.932;4.442;2023-05-23T15:49:13;24.80;70.50
22418;DHT22;11376;50.932;4.442;2023-05-23T15:51:39;25.20;70.00